CanjetBLOCKVirtuelBLOCKQcBLOCKBLOCKBLOCKBLOCKBLOCKBLOCKBLOCKBLOCKBLOCKBLOCKBLOCKvolsBLOCKavecBLOCKFS-kACARS2019-05-20BLOCK02colon58pm

volsBLOCKBLOCKBLOCKBLOCKBLOCKpilotesBLOCKBLOCKBLOCKBLOCKBLOCKBLOCKBLOCKBLOCKtypeBLOCKBLOCKdepBLOCKBLOCKarrBLOCKBLOCKBLOCKBLOCKBLOCKaltBLOCKBLOCKBLOCKBLOCKBLOCKgsBLOCKBLOCKBLOCKBLOCKstatut

CJA262RochBLOCKJB738CYYT-CYUL0ft2kts03colon28pm
CJA414LouisBLOCKMB738CYQB-CYUY0ft10ktsarrived
CJA409StephaneBLOCKGB738KLAS-CYUL34993ft474kts05colon33pm
CJA9999PierreBLOCKDB788CYYZ-CYHZ27251ft550kts04colon08pm
9999LouisBLOCKBB788CYYZ-CYHZ7313ft266kts05colon35pm






BLOCKAppuyerBLOCKsurBLOCKF5BLOCKpourBLOCKactualiserBLOCKBLOCKBLOCKMiseBLOCKaBLOCKjourcolonBLOCK14colon58colon28pmCanjetBLOCKvirtuelBLOCKQC

Boeing dans le trouble

Publié par Yvan Roy le 2019-05-14


 

                                                 


 


Bienvenue chez Canjetvirtuel-Q

Publié par Michel Ayotte le 2013-06-14

 

Canjetvirtuel-Québec est une compagnie aérienne virtuelle qui a été fondée par 2 passionnés de la simulation de vol.

Elle est opérée avec les Boeing 737. Exceptionnelement et pour votre plaisir les Boeing 747,757,767 et 777 sont autorisés pour des vols de plus de 1,5 heure.

Ces appareils pouvant faire des vols cargos ou des vols passagers,que ce soit au Canada, Europe, États-Unis, Mexique et Caraïbes.

Vous trouverez votre place comme pilote chez nous!



Avis

Aux fins de la simulation de vol seulement. CanjetVirtuel Québec n'est en aucun cas affilié avec n'importe quelle compagnie aérienne du monde réel. CanjetVirtuel Québec est un site à but non lucratif gérée par des amateurs de simulation de vol. Toutes les images sont la propriété exclusive de leurs propriétaires respectifs.
| propulsé par phpVMS, © 2013-2019.

Notice

For flight simulation purposes only. CanjetVirtuel Quebec is in no way affiliated with any real world airline. CanjetVirtuel Quebec is a non-profit site run by flight simulation enthusiasts. All images are the sole property of their respective owners.
| powered by phpVMS, © 2013-2019.

Affiliations

Vatsim

Les statistiques du site

Nombre de pilotes: 14
Total des vols effectués: 4447
Trajets disponibles: 543
Passagers transportés: 957241
Total des heures de vol: 13298
Distance totale (NM): 5662770
Pilotes en ligne: 5

Nouvelles

Boeing dans le trouble
05/14/2019
Bienvenue chez Canjetvirtuel-Q
06/14/2013

METAR

CYHZ 201829Z 16008KT 1/4SM R23/1600FT/N R14/1600FT/N FG VV001 09/09 A2974 RMK FG8 SLP076

CYQB 201831Z 07007KT 15SM SCT008 OVC011 11/11 A2961 WS RWY06 RMK SF4SC4 SLP029 DENSITY ALT 300FT

CYUL 201800Z 22018KT 30SM FEW037 FEW050 BKN095 BKN240 21/13 A2959 RMK CF1SC1AC4CI2 CF TR SLP021 DENSITY ALT 1300FT

CYYZ 201800Z 27016G26KT 15SM BKN035 13/06 A2981 RMK SC7 SLP098 DENSITY ALT 600FT